Time;durP1;ratioP1;P1;durP2;ratioP2;P2;SDS_P1;SDS_P2;PMS_P1;PMS_P2;Temp;Humidity;BMP_temperature;BMP_pressure;BME280_temperature;BME280_humidity;BME280_pressure;Samples;Min_cycle;Max_cycle;Signal;HPM_P1;HPM_P2
2023/07/15 03:00:55;;;;;;;194.27;184.13;;;16.90;99.90;;;;;;5732071;23;20805;-74
2023/07/15 03:03:21;;;;;;;205.47;194.80;;;17.00;99.90;;;;;;4944319;29;20189;-73
2023/07/15 03:05:47;;;;;;;83.50;79.10;;;16.90;99.90;;;;;;4946618;29;20276;-73
2023/07/15 03:08:14;;;;;;;61.97;58.73;;;16.90;99.90;;;;;;4954262;29;20193;-73
2023/07/15 03:10:44;;;;;;;125.63;118.80;;;16.90;99.90;;;;;;4936406;29;20658;-73
2023/07/15 03:13:11;;;;;;;134.03;127.00;;;16.80;99.90;;;;;;4956477;23;20608;-70
2023/07/15 03:15:39;;;;;;;51.93;49.23;;;16.80;99.90;;;;;;4934937;29;20224;-69
2023/07/15 03:18:04;;;;;;;33.93;32.03;;;16.80;99.90;;;;;;4917364;29;20194;-73
2023/07/15 03:20:30;;;;;;;120.10;113.87;;;16.80;99.90;;;;;;4935104;29;20750;-68
2023/07/15 03:22:56;;;;;;;140.53;133.27;;;16.70;99.90;;;;;;4920996;29;20211;-69
2023/07/15 03:25:22;;;;;;;120.37;114.17;;;16.80;99.90;;;;;;4898510;29;20622;-69
2023/07/15 03:27:49;;;;;;;61.97;58.27;;;16.80;99.90;;;;;;4915036;29;20191;-69
2023/07/15 03:30:15;;;;;;;62.87;59.33;;;16.70;99.90;;;;;;4915521;29;20768;-69
2023/07/15 03:32:42;;;;;;;50.07;47.23;;;16.60;99.90;;;;;;4897897;29;20656;-68
2023/07/15 03:35:09;;;;;;;72.13;68.33;;;16.60;99.90;;;;;;4914767;29;20202;-69
2023/07/15 03:37:36;;;;;;;38.57;36.47;;;16.50;99.90;;;;;;4915476;29;20262;-68
2023/07/15 03:40:07;;;;;;;136.00;128.87;;;16.50;99.90;;;;;;4915285;29;20213;-68
2023/07/15 03:42:33;;;;;;;170.87;161.80;;;16.50;99.90;;;;;;4914952;29;20229;-69
2023/07/15 03:44:58;;;;;;;194.77;184.20;;;16.50;99.90;;;;;;4915035;29;20238;-69
2023/07/15 03:47:24;;;;;;;39.10;36.40;;;16.60;99.90;;;;;;4898011;29;20263;-68
2023/07/15 03:49:50;;;;;;;29.67;28.00;;;16.60;99.90;;;;;;4915034;29;20195;-68
2023/07/15 03:52:16;;;;;;;30.90;29.10;;;16.60;99.90;;;;;;4914941;29;20195;-68
2023/07/15 03:54:43;;;;;;;29.90;27.90;;;16.60;99.90;;;;;;4898154;29;20771;-67
2023/07/15 03:57:09;;;;;;;25.50;24.10;;;16.60;99.90;;;;;;4897527;29;20673;-69
2023/07/15 03:59:35;;;;;;;23.10;21.80;;;16.60;99.90;;;;;;4899665;29;20194;-68
2023/07/15 04:02:00;;;;;;;18.37;17.27;;;16.60;99.90;;;;;;4920679;29;20195;-69
2023/07/15 04:04:26;;;;;;;19.47;18.37;;;16.70;99.90;;;;;;4897796;29;20687;-68
2023/07/15 04:06:52;;;;;;;22.67;21.27;;;16.70;99.90;;;;;;4914462;29;20195;-68
2023/07/15 04:09:18;;;;;;;29.10;27.23;;;16.70;99.90;;;;;;4914523;29;20562;-69
2023/07/15 04:11:43;;;;;;;31.00;29.07;;;16.80;99.90;;;;;;4897430;29;20184;-69
2023/07/15 04:14:09;;;;;;;29.97;28.07;;;16.70;99.90;;;;;;4914465;29;20314;-69
2023/07/15 04:16:35;;;;;;;31.77;29.90;;;16.80;99.90;;;;;;4914426;29;20192;-69
2023/07/15 04:19:01;;;;;;;35.73;33.13;;;16.80;99.90;;;;;;4914006;29;20186;-69
2023/07/15 04:21:27;;;;;;;34.03;31.80;;;16.70;99.90;;;;;;4914116;29;20199;-69
2023/07/15 04:23:54;;;;;;;20.47;18.73;;;16.70;99.90;;;;;;4913958;29;20223;-68
2023/07/15 04:26:22;;;;;;;28.83;27.00;;;16.90;99.90;;;;;;4914566;29;20245;-69
2023/07/15 04:28:49;;;;;;;37.00;35.03;;;17.00;99.90;;;;;;4914186;29;20617;-69
2023/07/15 04:31:15;;;;;;;31.30;29.50;;;17.10;99.90;;;;;;4897665;29;20590;-68
2023/07/15 04:33:45;;;;;;;12.43;11.73;;;17.20;99.90;;;;;;4914497;29;20210;-68
2023/07/15 04:36:12;;;;;;;14.40;13.50;;;17.20;99.90;;;;;;4897648;29;20225;-68
2023/07/15 04:38:37;;;;;;;17.07;15.93;;;17.30;99.90;;;;;;4914179;29;20190;-69
2023/07/15 04:41:03;;;;;;;30.58;28.60;;;17.40;99.90;;;;;;4914549;29;20190;-68
2023/07/15 04:43:29;;;;;;;43.23;40.83;;;17.40;99.90;;;;;;4913942;29;20210;-68
2023/07/15 04:45:55;;;;;;;51.43;48.63;;;17.40;99.90;;;;;;4914357;29;20226;-68
2023/07/15 04:48:23;;;;;;;80.40;76.30;;;17.50;99.90;;;;;;4914023;29;20201;-68
2023/07/15 04:50:50;;;;;;;87.47;82.77;;;17.50;99.90;;;;;;4914224;29;20768;-68
2023/07/15 04:53:16;;;;;;;93.97;89.17;;;17.70;99.90;;;;;;4915131;29;20721;-68
2023/07/15 04:55:42;;;;;;;51.60;48.93;;;17.80;99.90;;;;;;4913898;29;20206;-69
2023/07/15 04:58:09;;;;;;;12.05;11.35;;;17.90;99.90;;;;;;4897054;29;20195;-68
2023/07/15 05:00:36;;;;;;;22.73;21.48;;;18.00;99.90;;;;;;4897356;29;20232;-69
2023/07/15 05:03:05;;;;;;;27.33;25.73;;;18.30;99.90;;;;;;4913852;29;20210;-68
2023/07/15 05:05:31;;;;;;;389.35;367.48;;;18.50;99.90;;;;;;4913988;29;20238;-69
2023/07/15 05:08:07;;;;;;;439.90;414.42;;;18.80;99.90;;;;;;4913496;29;20198;-69
2023/07/15 05:10:33;;;;;;;427.85;403.85;;;19.10;99.90;;;;;;4897013;29;20281;-69
2023/07/15 05:12:59;;;;;;;274.27;259.88;;;19.60;99.90;;;;;;4913653;29;20306;-69
2023/07/15 05:15:25;;;;;;;100.10;94.97;;;20.30;99.90;;;;;;4906997;29;20187;-69
2023/07/15 05:17:51;;;;;;;44.08;41.35;;;21.10;99.90;;;;;;4897279;29;20297;-69
2023/07/15 05:20:18;;;;;;;76.38;72.32;;;21.90;99.90;;;;;;4916217;29;20191;-69
2023/07/15 05:22:44;;;;;;;36.85;34.75;;;22.60;99.90;;;;;;4913324;29;20281;-69
2023/07/15 05:25:10;;;;;;;41.50;39.10;;;23.30;99.90;;;;;;4913556;29;20214;-69
2023/07/15 05:27:36;;;;;;;152.07;144.70;;;23.80;99.90;;;;;;4913475;29;20373;-69
2023/07/15 05:30:02;;;;;;;122.30;116.15;;;24.40;99.90;;;;;;4896585;29;20267;-69
2023/07/15 05:32:28;;;;;;;49.67;47.28;;;24.90;99.90;;;;;;4917127;29;20179;-69
2023/07/15 05:34:53;;;;;;;13.63;12.93;;;25.20;99.90;;;;;;4915198;29;20267;-69
2023/07/15 05:37:19;;;;;;;20.58;19.38;;;25.50;99.90;;;;;;4916636;29;20195;-70
2023/07/15 05:39:46;;;;;;;37.05;35.13;;;25.70;99.90;;;;;;4916956;29;20290;-69
2023/07/15 05:42:12;;;;;;;26.85;25.35;;;26.00;99.90;;;;;;4917316;29;20218;-69
2023/07/15 05:44:37;;;;;;;27.10;25.45;;;26.00;99.90;;;;;;4917592;29;20687;-69
2023/07/15 05:47:03;;;;;;;26.05;24.73;;;26.10;99.90;;;;;;4916726;29;20194;-69
2023/07/15 05:49:29;;;;;;;13.77;12.90;;;26.10;99.90;;;;;;4917184;29;20202;-69
2023/07/15 05:51:54;;;;;;;17.98;17.00;;;26.10;99.90;;;;;;4917045;29;20900;-68
2023/07/15 05:54:20;;;;;;;19.70;18.27;;;26.20;99.90;;;;;;4917476;29;20211;-69
2023/07/15 05:56:46;;;;;;;24.45;22.20;;;26.20;99.90;;;;;;4916810;29;20197;-69
2023/07/15 05:59:12;;;;;;;12.15;11.43;;;26.30;99.90;;;;;;4916238;29;20195;-68
2023/07/15 06:01:37;;;;;;;8.88;8.32;;;26.70;99.90;;;;;;4899458;29;20191;-68
2023/07/15 06:04:06;;;;;;;11.35;10.50;;;27.40;99.90;;;;;;4916756;29;20214;-69
2023/07/15 06:06:31;;;;;;;12.35;11.40;;;28.00;99.90;;;;;;4916273;29;20270;-69
2023/07/15 06:08:57;;;;;;;7.75;7.05;;;28.40;99.90;;;;;;4904076;29;20693;-70
2023/07/15 06:11:23;;;;;;;42.42;40.08;;;28.50;99.90;;;;;;4919742;29;20269;-72
2023/07/15 06:13:48;;;;;;;57.15;54.25;;;28.40;99.90;;;;;;4915719;29;20614;-73
2023/07/15 06:16:14;;;;;;;68.28;64.70;;;28.30;99.90;;;;;;4916241;29;20631;-70
2023/07/15 06:18:40;;;;;;;24.35;22.50;;;28.50;99.90;;;;;;4899354;29;20679;-69
2023/07/15 06:21:07;;;;;;;8.95;8.10;;;29.00;99.20;;;;;;4916242;29;20191;-69
2023/07/15 06:23:33;;;;;;;6.55;6.15;;;29.60;98.60;;;;;;4916234;29;20218;-69
2023/07/15 06:25:59;;;;;;;7.03;6.63;;;29.70;98.10;;;;;;4916034;29;20218;-69
2023/07/15 06:28:25;;;;;;;6.82;6.32;;;29.50;97.80;;;;;;4898604;29;20771;-69
2023/07/15 06:31:03;;;;;;;6.05;5.63;;;29.40;98.20;;;;;;4916357;29;20242;-71
2023/07/15 06:33:30;;;;;;;6.22;5.93;;;29.20;98.00;;;;;;4899128;29;20215;-71
2023/07/15 06:35:56;;;;;;;5.57;5.18;;;29.20;98.10;;;;;;4928370;29;20759;-72
2023/07/15 06:38:22;;;;;;;8.63;8.20;;;29.70;97.90;;;;;;4899589;29;20231;-72
2023/07/15 06:40:48;;;;;;;6.93;6.32;;;30.30;96.40;;;;;;4916354;29;20191;-72
2023/07/15 06:43:13;;;;;;;5.28;4.93;;;30.70;95.10;;;;;;4916667;29;20794;-72
2023/07/15 06:45:40;;;;;;;9.10;8.57;;;30.90;94.70;;;;;;4897616;29;20243;-70
2023/07/15 06:48:05;;;;;;;13.15;12.35;;;31.20;93.70;;;;;;4898440;29;20282;-72
2023/07/15 06:50:31;;;;;;;16.10;15.00;;;30.90;93.70;;;;;;4916356;29;20722;-72
2023/07/15 06:52:57;;;;;;;16.33;15.23;;;30.80;93.60;;;;;;4916122;29;20230;-71
2023/07/15 06:55:23;;;;;;;18.42;17.38;;;31.20;93.30;;;;;;4915964;29;20282;-71
2023/07/15 06:57:48;;;;;;;13.30;12.23;;;31.60;93.00;;;;;;4898944;29;20217;-72
2023/07/15 07:00:14;;;;;;;9.63;9.13;;;31.90;92.50;;;;;;4900568;29;20187;-73
2023/07/15 07:02:40;;;;;;;4.40;3.97;;;32.40;91.80;;;;;;4918201;29;20194;-72
2023/07/15 07:05:06;;;;;;;20.38;19.02;;;32.80;90.70;;;;;;4916577;29;20578;-72
2023/07/15 07:07:32;;;;;;;29.40;27.92;;;33.10;87.70;;;;;;4916100;29;20206;-71
2023/07/15 07:09:57;;;;;;;27.23;25.77;;;33.30;87.30;;;;;;4899496;29;20550;-72
2023/07/15 07:12:23;;;;;;;35.10;33.38;;;33.30;84.30;;;;;;4898720;29;20183;-72
2023/07/15 07:14:50;;;;;;;41.45;39.30;;;33.30;83.10;;;;;;4899202;29;20257;-73
2023/07/15 07:17:16;;;;;;;42.70;40.42;;;33.20;82.70;;;;;;4898994;29;20190;-72
2023/07/15 07:19:42;;;;;;;60.92;58.03;;;33.30;83.30;;;;;;4923988;29;20865;-72
2023/07/15 07:22:07;;;;;;;96.88;92.28;;;33.80;82.10;;;;;;4916180;29;20718;-72
2023/07/15 07:24:33;;;;;;;83.40;79.43;;;34.20;78.70;;;;;;4916034;29;20307;-71
2023/07/15 07:26:59;;;;;;;100.50;95.65;;;34.00;78.40;;;;;;4915728;29;20201;-71
2023/07/15 07:29:25;;;;;;;71.50;67.97;;;34.20;76.70;;;;;;4915798;29;20213;-71
2023/07/15 07:31:52;;;;;;;54.47;51.70;;;34.10;74.50;;;;;;4919272;29;20190;-72
2023/07/15 07:34:18;;;;;;;50.78;48.35;;;34.00;73.10;;;;;;4895077;29;20211;-71
2023/07/15 07:36:45;;;;;;;37.88;36.00;;;34.10;71.80;;;;;;4915843;29;20563;-71
2023/07/15 07:39:12;;;;;;;36.30;34.03;;;34.10;72.00;;;;;;4898607;29;20194;-71
2023/07/15 07:41:39;;;;;;;17.55;16.63;;;34.40;71.70;;;;;;4915684;29;20198;-71
2023/07/15 07:44:05;;;;;;;17.75;16.85;;;34.40;69.30;;;;;;4915337;29;20217;-71
2023/07/15 07:46:31;;;;;;;7.13;6.70;;;34.80;69.60;;;;;;4915677;29;20214;-70
2023/07/15 07:48:57;;;;;;;9.57;8.98;;;35.30;68.10;;;;;;4915514;29;20190;-72
2023/07/15 07:51:23;;;;;;;7.97;7.57;;;35.70;67.60;;;;;;4915703;29;20263;-73
2023/07/15 07:53:49;;;;;;;9.95;9.45;;;35.60;67.10;;;;;;4915490;29;20595;-75
2023/07/15 07:56:15;;;;;;;13.40;12.68;;;35.80;67.00;;;;;;4915685;29;20210;-74
2023/07/15 07:58:40;;;;;;;19.13;16.60;;;36.10;64.30;;;;;;4902107;29;20183;-79
2023/07/15 08:01:06;;;;;;;34.08;32.38;;;35.90;64.20;;;;;;4903234;29;20205;-71
2023/07/15 08:03:32;;;;;;;52.17;49.70;;;36.20;64.90;;;;;;4915036;29;20675;-72
2023/07/15 08:05:59;;;;;;;104.53;99.47;;;36.40;64.60;;;;;;4908150;29;20776;-72
2023/07/15 08:08:25;;;;;;;123.50;117.43;;;36.60;60.40;;;;;;4919215;29;20198;-80
2023/07/15 08:10:51;;;;;;;156.75;149.25;;;36.50;61.70;;;;;;4928964;29;20187;-77
2023/07/15 08:13:17;;;;;;;131.15;124.40;;;36.40;59.70;;;;;;4918283;29;20223;-80
2023/07/15 08:15:43;;;;;;;169.32;160.93;;;36.30;59.00;;;;;;4924502;29;20203;-77
2023/07/15 08:18:09;;;;;;;155.38;147.98;;;36.60;60.00;;;;;;4902744;29;20723;-79
2023/07/15 08:20:37;;;;;;;163.77;155.95;;;36.60;59.20;;;;;;4900217;29;20229;-73
2023/07/15 08:23:03;;;;;;;79.43;75.60;;;36.70;59.60;;;;;;4904138;29;20215;-74
2023/07/15 08:25:29;;;;;;;120.80;114.82;;;36.80;57.80;;;;;;4890711;29;20218;-76
2023/07/15 08:27:56;;;;;;;83.28;79.20;;;37.10;59.00;;;;;;4920452;29;20210;-73
2023/07/15 08:30:22;;;;;;;55.55;52.78;;;37.30;57.70;;;;;;4918204;29;20187;-73
2023/07/15 08:32:48;;;;;;;56.70;53.90;;;37.20;56.50;;;;;;4916525;29;20222;-72
2023/07/15 08:35:14;;;;;;;41.78;39.78;;;37.20;56.20;;;;;;4913346;29;20195;-74
2023/07/15 08:37:41;;;;;;;57.45;54.65;;;37.00;54.90;;;;;;4913009;29;20191;-73
2023/07/15 08:40:08;;;;;;;38.03;36.15;;;36.90;55.70;;;;;;4913491;29;20195;-75
2023/07/15 08:42:35;;;;;;;45.00;42.80;;;37.00;54.10;;;;;;4913154;29;20743;-74
2023/07/15 08:45:02;;;;;;;23.85;22.65;;;37.00;53.90;;;;;;4913816;29;20215;-75
2023/07/15 08:47:29;;;;;;;22.98;21.77;;;37.10;52.50;;;;;;4894572;29;20270;-74
2023/07/15 08:49:56;;;;;;;29.02;27.58;;;37.60;52.40;;;;;;4915141;29;20627;-72
2023/07/15 08:52:23;;;;;;;21.63;20.60;;;38.10;52.40;;;;;;4914568;29;20278;-72
2023/07/15 08:54:52;;;;;;;15.00;14.05;;;38.70;50.70;;;;;;4906152;29;20230;-75
2023/07/15 08:57:19;;;;;;;21.15;19.95;;;39.20;49.30;;;;;;4898282;29;20187;-77
2023/07/15 08:59:56;;;;;;;19.45;18.30;;;38.90;47.90;;;;;;4906683;29;20214;-78
2023/07/15 09:02:22;;;;;;;23.17;22.05;;;38.50;48.60;;;;;;4921548;29;20202;-78
2023/07/15 09:04:48;;;;;;;23.65;22.23;;;38.50;48.40;;;;;;4931898;29;20234;-78
2023/07/15 09:07:14;;;;;;;13.90;13.20;;;38.30;47.90;;;;;;4908110;29;20191;-78
2023/07/15 09:09:40;;;;;;;11.50;10.90;;;37.90;48.60;;;;;;4900613;29;20183;-78
2023/07/15 09:12:08;;;;;;;14.45;13.52;;;37.60;48.30;;;;;;4903409;29;20210;-78
2023/07/15 09:14:46;;;;;;;20.45;19.45;;;37.70;47.60;;;;;;4968039;23;20261;-78
2023/07/15 09:17:20;;;;;;;20.27;19.30;;;37.80;47.80;;;;;;4956243;29;20190;-81
2023/07/15 09:19:47;;;;;;;21.40;20.10;;;37.80;46.90;;;;;;4939250;29;20276;-76
2023/07/15 09:22:13;;;;;;;13.90;13.15;;;37.50;47.20;;;;;;4955061;29;20186;-75
2023/07/15 09:24:39;;;;;;;15.25;14.48;;;37.10;49.10;;;;;;4956515;28;20634;-77
2023/07/15 09:27:06;;;;;;;10.60;9.80;;;37.10;48.60;;;;;;4937787;29;20248;-70
2023/07/15 09:29:33;;;;;;;13.18;12.40;;;37.70;49.10;;;;;;4955900;29;20274;-69
2023/07/15 09:31:59;;;;;;;14.52;13.50;;;38.20;47.80;;;;;;4955575;29;20182;-71
2023/07/15 09:34:26;;;;;;;19.00;18.05;;;38.20;48.10;;;;;;4955871;29;20241;-72
2023/07/15 09:36:52;;;;;;;19.88;18.88;;;38.50;47.30;;;;;;4955722;29;20185;-70
2023/07/15 09:39:22;;;;;;;21.05;19.83;;;38.70;48.80;;;;;;4955933;29;20200;-70
2023/07/15 09:42:07;;;;;;;15.60;14.15;;;38.20;48.40;;;;;;4945018;29;20206;-70
2023/07/15 09:44:35;;;;;;;18.38;17.23;;;38.20;50.00;;;;;;4950770;28;20221;-72
2023/07/15 09:47:05;;;;;;;31.60;29.88;;;38.50;48.90;;;;;;4955346;29;20669;-67
2023/07/15 09:49:31;;;;;;;24.70;23.20;;;38.80;46.20;;;;;;4955449;29;20280;-74
2023/07/15 09:51:58;;;;;;;24.55;23.20;;;38.90;45.40;;;;;;4955529;29;20577;-74
2023/07/15 09:54:30;;;;;;;25.25;23.98;;;39.10;45.30;;;;;;4954890;28;20304;-74
2023/07/15 09:57:02;;;;;;;19.55;18.60;;;39.50;45.40;;;;;;4936854;29;20189;-73
2023/07/15 09:59:45;;;;;;;18.63;17.25;;;40.10;45.70;;;;;;4955593;29;20285;-74
2023/07/15 10:02:30;;;;;;;19.90;18.90;;;40.40;44.50;;;;;;4937487;29;20189;-73
2023/07/15 10:05:05;;;;;;;16.40;15.50;;;40.30;44.10;;;;;;4955075;28;20268;-73
2023/07/15 10:07:31;;;;;;;15.05;14.10;;;40.30;44.30;;;;;;4955449;29;20279;-73
2023/07/15 10:09:59;;;;;;;17.98;17.08;;;40.10;44.10;;;;;;4955541;29;20193;-73
2023/07/15 10:12:29;;;;;;;14.82;13.90;;;40.10;44.20;;;;;;4952533;29;20601;-73
2023/07/15 10:14:56;;;;;;;15.07;14.35;;;40.00;44.30;;;;;;4938220;29;20228;-73
2023/07/15 10:17:22;;;;;;;15.48;14.57;;;39.80;43.90;;;;;;4955383;29;20217;-73
2023/07/15 10:19:47;;;;;;;20.90;19.90;;;39.70;44.20;;;;;;4941500;28;20189;-73
2023/07/15 10:22:15;;;;;;;20.20;19.10;;;39.50;45.00;;;;;;4946528;29;20217;-73
2023/07/15 10:24:42;;;;;;;24.35;23.20;;;39.40;43.10;;;;;;4955357;28;20217;-73
2023/07/15 10:27:10;;;;;;;22.20;21.10;;;39.10;43.50;;;;;;4955106;29;20189;-73
2023/07/15 10:29:38;;;;;;;26.45;24.98;;;39.00;43.80;;;;;;4937951;29;20197;-73
2023/07/15 10:32:16;;;;;;;28.15;26.80;;;39.50;44.00;;;;;;4937376;29;20186;-73
2023/07/15 10:34:50;;;;;;;23.63;22.52;;;39.90;44.80;;;;;;4954765;28;20228;-73
2023/07/15 10:37:17;;;;;;;6.05;5.75;;;40.90;43.30;;;;;;4954580;29;20321;-73
2023/07/15 10:39:45;;;;;;;5.93;5.53;;;41.30;41.50;;;;;;4954766;29;20186;-76
2023/07/15 10:42:16;;;;;;;7.13;6.82;;;41.40;42.70;;;;;;4954610;29;20190;-74
2023/07/15 10:44:51;;;;;;;7.32;6.82;;;41.60;41.20;;;;;;4954731;28;20215;-73
2023/07/15 10:47:16;;;;;;;7.13;6.75;;;41.40;41.70;;;;;;4954855;29;20661;-74
2023/07/15 10:49:46;;;;;;;5.97;5.68;;;40.30;41.60;;;;;;4937705;29;20197;-73
2023/07/15 10:52:18;;;;;;;8.23;7.57;;;39.90;42.70;;;;;;4937486;29;20193;-73
2023/07/15 10:54:44;;;;;;;6.13;5.50;;;40.40;42.60;;;;;;4952999;29;20632;-74
2023/07/15 10:57:12;;;;;;;8.15;7.63;;;41.70;41.20;;;;;;4937274;29;20186;-74
2023/07/15 10:59:45;;;;;;;7.03;6.65;;;42.20;39.40;;;;;;4954494;29;20688;-74
2023/07/15 11:02:12;;;;;;;6.45;6.07;;;42.80;40.40;;;;;;4954143;29;20619;-73
2023/07/15 11:04:39;;;;;;;3.85;3.65;;;43.10;39.30;;;;;;4954263;28;20205;-74
2023/07/15 11:07:07;;;;;;;3.05;2.83;;;43.40;38.00;;;;;;4954027;29;20193;-74
2023/07/15 11:09:40;;;;;;;3.10;2.90;;;43.80;38.20;;;;;;4954093;29;20654;-74
2023/07/15 11:12:08;;;;;;;3.60;3.40;;;43.10;37.20;;;;;;4936948;29;20182;-73
2023/07/15 11:14:34;;;;;;;8.00;7.38;;;41.60;38.40;;;;;;4954092;28;20233;-74
2023/07/15 11:17:01;;;;;;;7.47;6.97;;;40.70;39.50;;;;;;4936732;29;20544;-74
2023/07/15 11:19:29;;;;;;;12.38;11.70;;;40.70;40.60;;;;;;4953960;29;20217;-74
2023/07/15 11:21:56;;;;;;;3.78;3.67;;;41.60;40.30;;;;;;4936901;29;20670;-74
2023/07/15 11:24:28;;;;;;;3.08;2.78;;;42.40;38.00;;;;;;4937061;29;20202;-73
2023/07/15 11:26:53;;;;;;;2.72;2.63;;;43.60;36.90;;;;;;4953836;29;20309;-74
2023/07/15 11:29:24;;;;;;;3.00;2.78;;;44.10;36.40;;;;;;4936880;29;20268;-74
2023/07/15 11:31:52;;;;;;;3.28;3.08;;;44.30;36.60;;;;;;4953607;28;20608;-74
2023/07/15 11:34:20;;;;;;;6.15;2.90;;;43.40;36.70;;;;;;4954147;28;20334;-74
2023/07/15 11:36:47;;;;;;;2.85;2.65;;;42.70;37.50;;;;;;4936817;29;20200;-74
2023/07/15 11:39:14;;;;;;;9.23;4.68;;;41.90;38.00;;;;;;4953730;29;20232;-74
2023/07/15 11:41:40;;;;;;;8.25;7.60;;;41.30;39.60;;;;;;4953720;29;20566;-75
2023/07/15 11:44:26;;;;;;;14.02;13.32;;;40.30;38.90;;;;;;4953745;28;20206;-74
2023/07/15 11:46:55;;;;;;;17.15;16.25;;;39.60;40.20;;;;;;4953496;29;20308;-74
2023/07/15 11:49:21;;;;;;;16.95;16.05;;;39.50;41.40;;;;;;4954101;29;20185;-74
2023/07/15 11:51:47;;;;;;;20.52;19.20;;;39.80;39.80;;;;;;4954157;29;20204;-74
2023/07/15 11:54:15;;;;;;;8.32;7.97;;;41.30;39.40;;;;;;4950242;29;20205;-74
2023/07/15 11:56:47;;;;;;;2.78;2.60;;;42.70;37.30;;;;;;4969039;29;20699;-74
2023/07/15 11:59:30;;;;;;;2.88;2.78;;;43.60;37.70;;;;;;4954046;29;20225;-74
2023/07/15 12:01:58;;;;;;;2.95;2.85;;;44.20;36.90;;;;;;4936304;29;20194;-75
2023/07/15 12:04:27;;;;;;;3.20;3.00;;;43.90;35.20;;;;;;4953423;28;20268;-74
2023/07/15 12:06:53;;;;;;;3.58;3.40;;;44.30;36.50;;;;;;4953144;29;20269;-74
2023/07/15 12:09:21;;;;;;;3.03;2.83;;;44.90;35.50;;;;;;4953438;29;20185;-74
2023/07/15 12:11:48;;;;;;;2.72;2.63;;;45.40;34.70;;;;;;4936075;29;20189;-74
2023/07/15 12:14:15;;;;;;;2.50;2.40;;;45.70;34.00;;;;;;4936241;29;20316;-74
2023/07/15 12:16:42;;;;;;;3.28;2.50;;;46.00;34.60;;;;;;4953409;29;20197;-74
2023/07/15 12:19:10;;;;;;;2.72;2.55;;;46.10;33.80;;;;;;4953114;29;20241;-74
2023/07/15 12:21:36;;;;;;;3.70;2.72;;;45.50;34.10;;;;;;4935550;29;20665;-75
2023/07/15 12:24:02;;;;;;;2.67;2.47;;;45.40;34.00;;;;;;4935811;29;20216;-74
2023/07/15 12:26:28;;;;;;;2.60;2.50;;;45.40;34.20;;;;;;4952991;29;20224;-74
2023/07/15 12:28:54;;;;;;;2.60;2.50;;;45.20;33.40;;;;;;4952704;29;20638;-74
2023/07/15 12:31:21;;;;;;;3.05;2.60;;;45.00;34.40;;;;;;4952746;29;20186;-74
2023/07/15 12:33:46;;;;;;;2.95;2.75;;;45.20;33.80;;;;;;4935752;29;20287;-74
2023/07/15 12:36:14;;;;;;;3.35;3.15;;;45.10;33.70;;;;;;4953050;29;20686;-74
2023/07/15 12:38:40;;;;;;;3.17;2.97;;;45.60;32.80;;;;;;4935439;29;20189;-74
2023/07/15 12:41:07;;;;;;;2.97;2.78;;;45.50;33.20;;;;;;4952824;29;20232;-74
2023/07/15 12:43:34;;;;;;;3.67;2.97;;;45.50;33.60;;;;;;4935318;29;20273;-74
2023/07/15 12:46:00;;;;;;;2.53;2.38;;;45.30;32.30;;;;;;4953528;29;20214;-75
2023/07/15 12:48:26;;;;;;;2.67;2.58;;;45.50;32.70;;;;;;4952588;29;20236;-74
2023/07/15 12:50:52;;;;;;;3.35;3.10;;;45.50;33.60;;;;;;4935683;29;20185;-75
2023/07/15 12:53:20;;;;;;;4.00;3.10;;;45.50;32.20;;;;;;4935744;29;20264;-75
2023/07/15 12:55:46;;;;;;;2.47;2.38;;;45.30;32.30;;;;;;4953025;29;20217;-75
2023/07/15 12:58:13;;;;;;;2.88;2.67;;;44.70;32.90;;;;;;4935188;29;20245;-76
2023/07/15 13:00:39;;;;;;;4.55;3.17;;;44.50;33.00;;;;;;4952526;29;20213;-75
2023/07/15 13:03:06;;;;;;;3.13;2.92;;;44.70;32.80;;;;;;4935498;28;20221;-75
2023/07/15 13:05:33;;;;;;;2.80;2.70;;;45.10;32.60;;;;;;4935485;29;20221;-75
2023/07/15 13:07:59;;;;;;;4.15;3.72;;;45.50;31.90;;;;;;4952260;29;20190;-75
2023/07/15 13:10:25;;;;;;;3.53;3.40;;;46.10;31.70;;;;;;4952794;29;20213;-75
2023/07/15 13:12:51;;;;;;;3.50;3.30;;;45.80;31.50;;;;;;4952325;29;20181;-75
2023/07/15 13:15:17;;;;;;;3.50;3.30;;;45.60;32.30;;;;;;4935413;29;20573;-75
2023/07/15 13:17:43;;;;;;;3.65;3.42;;;45.80;31.70;;;;;;4952180;29;20197;-75
2023/07/15 13:20:09;;;;;;;3.25;2.90;;;45.00;32.30;;;;;;4952677;29;20193;-75
2023/07/15 13:22:39;;;;;;;2.60;2.40;;;44.30;33.00;;;;;;4952835;29;20190;-75
2023/07/15 13:25:07;;;;;;;2.88;2.72;;;43.70;33.40;;;;;;4935947;29;20241;-75
2023/07/15 13:27:35;;;;;;;4.95;2.75;;;44.60;33.40;;;;;;4951885;29;20192;-75
2023/07/15 13:30:01;;;;;;;4.60;3.15;;;44.60;33.00;;;;;;4957936;28;20705;-75
2023/07/15 13:32:27;;;;;;;4.53;3.20;;;44.90;32.50;;;;;;4952237;29;20189;-75
2023/07/15 13:34:53;;;;;;;3.05;2.92;;;44.70;32.30;;;;;;4952196;28;20211;-75
2023/07/15 13:37:19;;;;;;;3.15;2.75;;;44.80;32.60;;;;;;4952722;29;20193;-75
2023/07/15 13:39:46;;;;;;;3.05;2.85;;;45.10;32.50;;;;;;4952426;29;20597;-75
2023/07/15 13:42:14;;;;;;;3.28;3.13;;;44.90;32.20;;;;;;4952370;29;20253;-76
2023/07/15 13:44:40;;;;;;;4.25;3.15;;;45.50;32.60;;;;;;4952157;28;20285;-75
2023/07/15 13:47:06;;;;;;;3.33;2.80;;;45.10;32.50;;;;;;4952090;29;20628;-76
2023/07/15 13:49:32;;;;;;;2.92;2.80;;;44.60;32.40;;;;;;4952367;29;20200;-76
2023/07/15 13:51:59;;;;;;;3.13;2.92;;;43.40;33.80;;;;;;4952120;29;20264;-76
2023/07/15 13:54:25;;;;;;;3.85;3.63;;;42.80;34.50;;;;;;4935046;29;20212;-76
2023/07/15 13:56:52;;;;;;;3.58;3.28;;;42.80;33.90;;;;;;4938198;29;20193;-74
2023/07/15 13:59:18;;;;;;;3.97;3.78;;;42.90;34.90;;;;;;4956175;29;20636;-76
2023/07/15 14:01:45;;;;;;;3.88;3.65;;;42.30;35.90;;;;;;4955525;29;20185;-76
2023/07/15 14:04:12;;;;;;;3.92;3.63;;;41.60;35.80;;;;;;4938793;29;20222;-76
2023/07/15 14:06:41;;;;;;;3.40;3.20;;;41.80;35.60;;;;;;4955820;29;20215;-76
2023/07/15 14:09:07;;;;;;;3.55;3.30;;;42.40;34.90;;;;;;4955450;28;20185;-75
2023/07/15 14:11:34;;;;;;;3.80;3.50;;;42.20;35.20;;;;;;4938656;29;20615;-76
2023/07/15 14:13:59;;;;;;;4.60;4.38;;;41.00;35.50;;;;;;4955034;29;20700;-76
2023/07/15 14:16:25;;;;;;;6.15;5.75;;;39.90;36.90;;;;;;4955381;29;20272;-76
2023/07/15 14:18:51;;;;;;;5.68;5.25;;;39.40;37.80;;;;;;4955096;29;20202;-76
2023/07/15 14:21:17;;;;;;;5.88;5.55;;;38.70;38.10;;;;;;4937971;29;20182;-75
2023/07/15 14:23:42;;;;;;;8.60;7.88;;;38.30;38.80;;;;;;4954526;28;20235;-75
2023/07/15 14:26:08;;;;;;;6.90;6.47;;;38.80;38.60;;;;;;4954985;29;20213;-75
2023/07/15 14:28:34;;;;;;;7.15;6.72;;;38.70;37.90;;;;;;4954944;29;20665;-76
2023/07/15 14:31:00;;;;;;;7.88;7.20;;;39.20;37.90;;;;;;4955590;29;20182;-76
2023/07/15 14:33:26;;;;;;;6.55;6.18;;;39.80;36.40;;;;;;4952255;28;20213;-76
2023/07/15 14:35:52;;;;;;;6.07;5.38;;;40.10;35.90;;;;;;4955366;29;20197;-76
2023/07/15 14:38:17;;;;;;;3.80;3.25;;;41.10;35.20;;;;;;4955011;29;20201;-76
2023/07/15 14:40:43;;;;;;;3.85;3.65;;;41.80;34.60;;;;;;4938147;29;20190;-76
2023/07/15 14:43:09;;;;;;;4.30;4.00;;;41.30;34.70;;;;;;4955131;28;20198;-76
2023/07/15 14:45:35;;;;;;;4.68;4.38;;;40.60;35.90;;;;;;4938671;29;20209;-76
2023/07/15 14:48:00;;;;;;;7.05;6.65;;;39.90;36.50;;;;;;4938033;29;20193;-76
2023/07/15 14:50:26;;;;;;;4.95;4.65;;;39.10;37.00;;;;;;4954777;29;20655;-76
2023/07/15 14:52:52;;;;;;;8.60;8.15;;;38.30;38.60;;;;;;4954602;29;20244;-76
2023/07/15 14:55:18;;;;;;;11.50;10.90;;;38.10;39.50;;;;;;4937635;29;20211;-76
2023/07/15 14:57:44;;;;;;;14.82;14.02;;;38.10;39.40;;;;;;4955012;29;20196;-76
2023/07/15 15:00:10;;;;;;;9.43;8.77;;;38.10;39.60;;;;;;4964791;29;20245;-76
2023/07/15 15:02:36;;;;;;;26.67;25.33;;;38.20;38.90;;;;;;4953285;29;20646;-76
2023/07/15 15:05:02;;;;;;;115.00;108.93;;;38.10;39.90;;;;;;4955467;28;20220;-76
2023/07/15 15:07:28;;;;;;;204.38;194.02;;;37.80;41.70;;;;;;4953894;28;20189;-76
2023/07/15 15:09:54;;;;;;;188.25;178.85;;;37.10;43.70;;;;;;4937573;29;20224;-76
2023/07/15 15:12:20;;;;;;;172.18;163.98;;;36.60;45.40;;;;;;4954822;29;20590;-76
2023/07/15 15:14:46;;;;;;;102.55;97.72;;;36.10;46.50;;;;;;4975333;23;20280;-76
2023/07/15 15:17:12;;;;;;;107.18;102.10;;;35.70;48.00;;;;;;4954012;29;20201;-76
2023/07/15 15:19:38;;;;;;;138.75;131.25;;;35.30;48.50;;;;;;4954043;29;20181;-76
2023/07/15 15:22:04;;;;;;;257.15;244.75;;;34.90;49.20;;;;;;4953443;29;20651;-76
2023/07/15 15:24:30;;;;;;;307.98;292.13;;;34.60;50.00;;;;;;4954120;29;20206;-77
2023/07/15 15:26:57;;;;;;;358.10;338.65;;;34.10;50.40;;;;;;4954428;29;20701;-78
2023/07/15 15:29:24;;;;;;;82.32;77.10;;;33.30;52.00;;;;;;4937009;29;20624;-78
2023/07/15 15:31:50;;;;;;;30.38;28.42;;;32.70;53.50;;;;;;4953841;29;20182;-76